Time;durP1;ratioP1;P1;durP2;ratioP2;P2;SDS_P1;SDS_P2;PMS_P1;PMS_P2;Temp;Humidity;BMP_temperature;BMP_pressure;BME280_temperature;BME280_humidity;BME280_pressure;Samples;Min_cycle;Max_cycle;Signal;HPM_P1;HPM_P2
2023/01/11 00:01:33;;;;;;;;;;;;;;;;;;4983746;28;20523;-65
2023/01/11 00:04:00;;;;;;;;;;;;;;;;;;4980049;28;19927;-64
2023/01/11 00:06:26;;;;;;;;;;;;;;;;;;4996132;28;20602;-65
2023/01/11 00:08:51;;;;;;;;;;;;;;;;;;4997809;28;20315;-65
2023/01/11 00:11:17;;;;;;;;;;;;;;;;;;4995670;28;20387;-65
2023/01/11 00:13:43;;;;;;;;;;;;;;;;;;4998624;28;19975;-65
2023/01/11 00:16:09;;;;;;;;;;;;;;;;;;4981247;28;19921;-65
2023/01/11 00:18:36;;;;;;;;;;;;;;;;;;4999202;28;20414;-65
2023/01/11 00:21:04;;;;;;;;;;;;;;;;;;4997628;28;19928;-64
2023/01/11 00:23:32;;;;;;;;;;;;;;;;;;4998719;28;20730;-64
2023/01/11 00:25:57;;;;;;;;;;;;;;;;;;4998122;28;19921;-64
2023/01/11 00:28:23;;;;;;;;;;;;;;;;;;4999779;28;19925;-64
2023/01/11 00:30:50;;;;;;;;;;;;;;;;;;4977915;28;19921;-66
2023/01/11 00:33:16;;;;;;;;;;;;;;;;;;4984161;28;19953;-66
2023/01/11 00:35:41;;;;;;;;;;;;;;;;;;4997334;28;20187;-66
2023/01/11 00:38:42;;;;;;;;;;;;;;;;;;4996945;28;20556;-65
2023/01/11 00:47:55;;;;;;;;;;;;;;;;;;4997123;28;19917;-66
2023/01/11 00:49:20;;;;;;;;;;;;;;;;;;4989446;28;20255;-66
2023/01/11 00:51:48;;;;;;;;;;;;;;;;;;4997415;28;20353;-64
2023/01/11 00:54:14;;;;;;;;;;;;;;;;;;4995844;28;19928;-65
2023/01/11 00:56:39;;;;;;;;;;;;;;;;;;4995834;28;19921;-64
2023/01/11 00:59:07;;;;;;;;;;;;;;;;;;4999440;28;20165;-64
2023/01/11 01:01:33;;;;;;;;;;;;;;;;;;4998938;28;20276;-66
2023/01/11 01:03:58;;;;;;;;;;;;;;;;;;4998460;28;19925;-65
2023/01/11 01:06:26;;;;;;;;;;;;;;;;;;4998929;28;19960;-65
2023/01/11 01:08:51;;;;;;;;;;;;;;;;;;4998467;28;19929;-65
2023/01/11 01:11:21;;;;;;;;;;;;;;;;;;4983461;28;20158;-66
2023/01/11 01:16:33;;;;;;;;;;;;;;;;;;5001997;28;20274;-66
2023/01/11 01:18:58;;;;;;;;;;;;;;;;;;5002573;28;19926;-65
2023/01/11 01:21:24;;;;;;;;;;;;;;;;;;5002185;28;19921;-65
2023/01/11 01:23:50;;;;;;;;;;;;;;;;;;5000539;28;20004;-65
2023/01/11 01:26:15;;;;;;;;;;;;;;;;;;5000551;28;19921;-66
2023/01/11 01:28:40;;;;;;;;;;;;;;;;;;4999386;28;20556;-64
2023/01/11 01:31:06;;;;;;;;;;;;;;;;;;5001480;28;19927;-64
2023/01/11 01:33:31;;;;;;;;;;;;;;;;;;5004410;28;19921;-66
2023/01/11 01:35:59;;;;;;;;;;;;;;;;;;5001319;28;19921;-65
2023/01/11 01:38:28;;;;;;;;;;;;;;;;;;5002020;28;20300;-66
2023/01/11 01:40:55;;;;;;;;;;;;;;;;;;4985545;28;19940;-66
2023/01/11 01:43:21;;;;;;;;;;;;;;;;;;5003100;28;19929;-66
2023/01/11 01:45:48;;;;;;;;;;;;;;;;;;4999802;28;19917;-66
2023/01/11 01:48:14;;;;;;;;;;;;;;;;;;5002261;28;19966;-66
2023/01/11 01:50:39;;;;;;;;;;;;;;;;;;4999300;28;20598;-66
2023/01/11 01:53:05;;;;;;;;;;;;;;;;;;4998935;28;19924;-65
2023/01/11 01:55:31;;;;;;;;;;;;;;;;;;5003032;28;20396;-64
2023/01/11 01:57:56;;;;;;;;;;;;;;;;;;5002540;28;19933;-64
2023/01/11 02:00:22;;;;;;;;;;;;;;;;;;5001083;28;19928;-65
2023/01/11 02:02:47;;;;;;;;;;;;;;;;;;4999521;28;20190;-65
2023/01/11 02:05:14;;;;;;;;;;;;;;;;;;5001448;28;19921;-65
2023/01/11 02:07:40;;;;;;;;;;;;;;;;;;4999070;28;19927;-65
2023/01/11 02:10:08;;;;;;;;;;;;;;;;;;4999238;28;20389;-65
2023/01/11 02:12:36;;;;;;;;;;;;;;;;;;5001698;28;20514;-65
2023/01/11 02:15:02;;;;;;;;;;;;;;;;;;4998560;28;19917;-65
2023/01/11 02:17:30;;;;;;;;;;;;;;;;;;5000611;28;19945;-65
2023/01/11 02:22:51;;;;;;;;;;;;;;;;;;5087835;22;20438;-65
2023/01/11 02:25:16;;;;;;;;;;;;;;;;;;4995663;28;20024;-65
2023/01/11 02:27:44;;;;;;;;;;;;;;;;;;4997961;28;19913;-66
2023/01/11 02:30:12;;;;;;;;;;;;;;;;;;4966458;28;19921;-66
2023/01/11 02:32:40;;;;;;;;;;;;;;;;;;4998887;28;20475;-66
2023/01/11 02:35:08;;;;;;;;;;;;;;;;;;4983603;28;19975;-67
2023/01/11 02:37:34;;;;;;;;;;;;;;;;;;4999733;28;20555;-64
2023/01/11 02:39:59;;;;;;;;;;;;;;;;;;5000300;28;19921;-66
2023/01/11 02:45:11;;;;;;;;;;;;;;;;;;4999761;28;19928;-67
2023/01/11 02:47:39;;;;;;;;;;;;;;;;;;4999295;28;19921;-67
2023/01/11 02:50:05;;;;;;;;;;;;;;;;;;4985520;28;20388;-66
2023/01/11 02:52:30;;;;;;;;;;;;;;;;;;4981616;28;19921;-65
2023/01/11 02:54:58;;;;;;;;;;;;;;;;;;4985054;28;20277;-66
2023/01/11 02:57:25;;;;;;;;;;;;;;;;;;4993675;28;19943;-67
2023/01/11 02:59:51;;;;;;;;;;;;;;;;;;4999521;28;19921;-66
2023/01/11 03:02:17;;;;;;;;;;;;;;;;;;4983582;28;21895;-67
2023/01/11 03:04:47;;;;;;;;;;;;;;;;;;4983006;28;19964;-67
2023/01/11 03:07:14;;;;;;;;;;;;;;;;;;4998559;28;20954;-66
2023/01/11 03:09:42;;;;;;;;;;;;;;;;;;4967010;28;20147;-66
2023/01/11 03:14:54;;;;;;;;;;;;;;;;;;5000213;28;19944;-66
2023/01/11 03:17:19;;;;;;;;;;;;;;;;;;4967799;28;19917;-65
2023/01/11 03:19:45;;;;;;;;;;;;;;;;;;4998538;28;19943;-65
2023/01/11 03:22:10;;;;;;;;;;;;;;;;;;4982310;28;20081;-66
2023/01/11 03:24:35;;;;;;;;;;;;;;;;;;4977128;28;20946;-66
2023/01/11 03:27:01;;;;;;;;;;;;;;;;;;4968055;28;19917;-66
2023/01/11 03:29:29;;;;;;;;;;;;;;;;;;4995552;28;20407;-66
2023/01/11 03:31:55;;;;;;;;;;;;;;;;;;4996755;28;19996;-65
2023/01/11 03:34:23;;;;;;;;;;;;;;;;;;4998300;28;20039;-66
2023/01/11 03:36:50;;;;;;;;;;;;;;;;;;4997512;28;20001;-65
2023/01/11 03:39:16;;;;;;;;;;;;;;;;;;4976115;28;19921;-65
2023/01/11 03:41:41;;;;;;;;;;;;;;;;;;4979902;28;20066;-65
2023/01/11 03:44:11;;;;;;;;;;;;;;;;;;4984794;28;20004;-65
2023/01/11 03:46:37;;;;;;;;;;;;;;;;;;4997552;28;20270;-65
2023/01/11 03:49:02;;;;;;;;;;;;;;;;;;4965366;28;20356;-65
2023/01/11 03:51:28;;;;;;;;;;;;;;;;;;4997985;28;20020;-64
2023/01/11 03:53:53;;;;;;;;;;;;;;;;;;4982003;28;19921;-65
2023/01/11 03:56:22;;;;;;;;;;;;;;;;;;4980113;28;19964;-64
2023/01/11 03:58:47;;;;;;;;;;;;;;;;;;4983073;28;20012;-63
2023/01/11 04:01:12;;;;;;;;;;;;;;;;;;4996650;28;19967;-64
2023/01/11 04:03:38;;;;;;;;;;;;;;;;;;4978248;28;19921;-63
2023/01/11 04:06:05;;;;;;;;;;;;;;;;;;4997707;28;19982;-64
2023/01/11 04:08:31;;;;;;;;;;;;;;;;;;4990623;28;20106;-63
2023/01/11 04:10:58;;;;;;;;;;;;;;;;;;4981813;28;20140;-64
2023/01/11 04:13:27;;;;;;;;;;;;;;;;;;4997035;28;20215;-63
2023/01/11 04:15:55;;;;;;;;;;;;;;;;;;4997126;28;19948;-63
2023/01/11 04:18:21;;;;;;;;;;;;;;;;;;4981210;28;20616;-64
2023/01/11 04:20:49;;;;;;;;;;;;;;;;;;4996003;28;20213;-64
2023/01/11 04:23:14;;;;;;;;;;;;;;;;;;4997218;28;20290;-64
2023/01/11 04:25:42;;;;;;;;;;;;;;;;;;4981836;28;20349;-68
2023/01/11 04:28:08;;;;;;;;;;;;;;;;;;4974435;28;19925;-64
2023/01/11 04:30:34;;;;;;;;;;;;;;;;;;4993231;28;19921;-63
2023/01/11 04:33:00;;;;;;;;;;;;;;;;;;4995075;28;19921;-64
2023/01/11 04:35:28;;;;;;;;;;;;;;;;;;4997414;28;19921;-64
2023/01/11 04:37:55;;;;;;;;;;;;;;;;;;4958553;28;19924;-64
2023/01/11 04:40:20;;;;;;;;;;;;;;;;;;4983513;28;19921;-64
2023/01/11 04:42:46;;;;;;;;;;;;;;;;;;4988892;28;20074;-68
2023/01/11 04:45:11;;;;;;;;;;;;;;;;;;4968254;28;20296;-63
2023/01/11 04:47:36;;;;;;;;;;;;;;;;;;4996149;28;19921;-64
2023/01/11 04:50:01;;;;;;;;;;;;;;;;;;4997038;28;19964;-63
2023/01/11 04:52:29;;;;;;;;;;;;;;;;;;4995325;28;20296;-64
2023/01/11 04:54:54;;;;;;;;;;;;;;;;;;4996880;28;19921;-63
2023/01/11 04:57:24;;;;;;;;;;;;;;;;;;4981769;28;19975;-63
2023/01/11 04:59:49;;;;;;;;;;;;;;;;;;4995456;28;20028;-63
2023/01/11 05:02:15;;;;;;;;;;;;;;;;;;4977560;28;19927;-63
2023/01/11 05:04:43;;;;;;;;;;;;;;;;;;4980397;28;19968;-63
2023/01/11 05:07:14;;;;;;;;;;;;;;;;;;4980525;28;20552;-63
2023/01/11 05:09:40;;;;;;;;;;;;;;;;;;4995335;28;20381;-63
2023/01/11 05:12:05;;;;;;;;;;;;;;;;;;4995732;28;20187;-63
2023/01/11 05:14:30;;;;;;;;;;;;;;;;;;4997187;28;20381;-63
2023/01/11 05:16:56;;;;;;;;;;;;;;;;;;4979805;28;20335;-63
2023/01/11 05:19:21;;;;;;;;;;;;;;;;;;4982503;28;20624;-63
2023/01/11 05:21:47;;;;;;;;;;;;;;;;;;4990411;28;19921;-63
2023/01/11 05:24:17;;;;;;;;;;;;;;;;;;4978783;28;20482;-64
2023/01/11 05:26:42;;;;;;;;;;;;;;;;;;4974556;28;19932;-64
2023/01/11 05:29:14;;;;;;;;;;;;;;;;;;4980604;28;20518;-64
2023/01/11 05:31:40;;;;;;;;;;;;;;;;;;4994177;28;19921;-64
2023/01/11 05:34:08;;;;;;;;;;;;;;;;;;4998307;28;19921;-63
2023/01/11 05:36:34;;;;;;;;;;;;;;;;;;4993558;28;20559;-64
2023/01/11 05:42:16;;;;;;;;;;;;;;;;;;4996984;28;19983;-64
2023/01/11 05:47:29;;;;;;;;;;;;;;;;;;4995513;28;19921;-63
2023/01/11 05:49:55;;;;;;;;;;;;;;;;;;4994085;28;19925;-63
2023/01/11 05:52:20;;;;;;;;;;;;;;;;;;4972181;28;20188;-63
2023/01/11 05:54:45;;;;;;;;;;;;;;;;;;4989846;28;19995;-63
2023/01/11 05:57:10;;;;;;;;;;;;;;;;;;4982422;28;19932;-62
2023/01/11 05:59:39;;;;;;;;;;;;;;;;;;4981636;28;19929;-64
2023/01/11 06:02:04;;;;;;;;;;;;;;;;;;4985084;28;20355;-64
2023/01/11 06:04:30;;;;;;;;;;;;;;;;;;5001670;28;19948;-64
2023/01/11 06:06:58;;;;;;;;;;;;;;;;;;4985068;28;19924;-63
2023/01/11 06:09:23;;;;;;;;;;;;;;;;;;4981619;28;19925;-63
2023/01/11 06:11:49;;;;;;;;;;;;;;;;;;4997960;28;20496;-62
2023/01/11 06:14:15;;;;;;;;;;;;;;;;;;5000634;28;19968;-63
2023/01/11 06:16:40;;;;;;;;;;;;;;;;;;5000290;28;20280;-63
2023/01/11 06:19:06;;;;;;;;;;;;;;;;;;4986373;28;20280;-63
2023/01/11 06:21:31;;;;;;;;;;;;;;;;;;5000374;28;19921;-64
2023/01/11 06:23:57;;;;;;;;;;;;;;;;;;4984787;28;20205;-63
2023/01/11 06:26:25;;;;;;;;;;;;;;;;;;5000189;28;19931;-63
2023/01/11 06:28:50;;;;;;;;;;;;;;;;;;4957704;28;20509;-64
2023/01/11 06:31:20;;;;;;;;;;;;;;;;;;4977680;28;19951;-64
2023/01/11 06:33:51;;;;;;;;;;;;;;;;;;4985747;28;19966;-64
2023/01/11 06:36:16;;;;;;;;;;;;;;;;;;4979290;28;20339;-63
2023/01/11 06:38:42;;;;;;;;;;;;;;;;;;4999977;28;19925;-63
2023/01/11 06:41:07;;;;;;;;;;;;;;;;;;4992607;28;20218;-64
2023/01/11 06:43:33;;;;;;;;;;;;;;;;;;4998929;28;20003;-64
2023/01/11 06:46:00;;;;;;;;;;;;;;;;;;4983488;28;19922;-65
2023/01/11 06:48:26;;;;;;;;;;;;;;;;;;4982814;28;20403;-65
2023/01/11 06:50:51;;;;;;;;;;;;;;;;;;4996710;28;19921;-65
2023/01/11 06:53:18;;;;;;;;;;;;;;;;;;5000443;28;20013;-65
2023/01/11 06:55:46;;;;;;;;;;;;;;;;;;4977024;28;19917;-65
2023/01/11 06:58:14;;;;;;;;;;;;;;;;;;4994624;28;20153;-65
2023/01/11 07:00:42;;;;;;;;;;;;;;;;;;4978704;28;19921;-65
2023/01/11 07:03:08;;;;;;;;;;;;;;;;;;4996816;28;19920;-65
2023/01/11 07:05:36;;;;;;;;;;;;;;;;;;4996967;28;20096;-64
2023/01/11 07:08:04;;;;;;;;;;;;;;;;;;4995478;28;19929;-64
2023/01/11 07:10:29;;;;;;;;;;;;;;;;;;4990180;28;20623;-62
2023/01/11 07:12:57;;;;;;;;;;;;;;;;;;4995032;28;20024;-65
2023/01/11 07:15:23;;;;;;;;;;;;;;;;;;4996330;28;19963;-63
2023/01/11 07:17:53;;;;;;;;;;;;;;;;;;4996040;28;19921;-64
2023/01/11 07:20:21;;;;;;;;;;;;;;;;;;4981262;28;19937;-63
2023/01/11 07:22:47;;;;;;;;;;;;;;;;;;4981184;28;19921;-64
2023/01/11 07:25:23;;;;;;;;;;;;;;;;;;4980177;28;19929;-64
2023/01/11 07:27:48;;;;;;;;;;;;;;;;;;4979791;28;20020;-65
2023/01/11 07:30:13;;;;;;;;;;;;;;;;;;4973422;28;19927;-64
2023/01/11 07:32:39;;;;;;;;;;;;;;;;;;4972584;28;20012;-64
2023/01/11 07:35:04;;;;;;;;;;;;;;;;;;4995059;28;20191;-64
2023/01/11 07:37:44;;;;;;;;;;;;;;;;;;4995653;28;20034;-65
2023/01/11 07:40:10;;;;;;;;;;;;;;;;;;4963959;28;20380;-65
2023/01/11 07:45:24;;;;;;;;;;;;;;;;;;4995988;28;20365;-64
2023/01/11 07:47:50;;;;;;;;;;;;;;;;;;4972831;28;19921;-64
2023/01/11 07:50:15;;;;;;;;;;;;;;;;;;4994703;28;21327;-66
2023/01/11 07:52:48;;;;;;;;;;;;;;;;;;4995654;28;20523;-65
2023/01/11 07:55:14;;;;;;;;;;;;;;;;;;4983041;28;19932;-66
2023/01/11 07:57:39;;;;;;;;;;;;;;;;;;4994508;28;19980;-64
2023/01/11 08:00:05;;;;;;;;;;;;;;;;;;4982901;28;19921;-64
2023/01/11 08:02:30;;;;;;;;;;;;;;;;;;4975003;28;20541;-64
2023/01/11 08:04:57;;;;;;;;;;;;;;;;;;4995782;28;20011;-63
2023/01/11 08:07:25;;;;;;;;;;;;;;;;;;4996794;28;19918;-63
2023/01/11 08:09:53;;;;;;;;;;;;;;;;;;4999375;28;19932;-63
2023/01/11 08:15:03;;;;;;;;;;;;;;;;;;4994793;28;19921;-64
2023/01/11 08:17:30;;;;;;;;;;;;;;;;;;4995915;28;19963;-65
2023/01/11 08:19:58;;;;;;;;;;;;;;;;;;4972183;28;20384;-65
2023/01/11 08:22:26;;;;;;;;;;;;;;;;;;4998557;28;19917;-63
2023/01/11 08:24:52;;;;;;;;;;;;;;;;;;4999290;28;20485;-63
2023/01/11 08:27:24;;;;;;;;;;;;;;;;;;4986431;28;19921;-63
2023/01/11 08:29:52;;;;;;;;;;;;;;;;;;4980786;28;19932;-64
2023/01/11 08:35:34;;;;;;;;;;;;;;;;;;4992667;28;20068;-63
2023/01/11 08:38:02;;;;;;;;;;;;;;;;;;4995431;28;20323;-63
2023/01/11 08:40:29;;;;;;;;;;;;;;;;;;4994090;28;20047;-63
2023/01/11 08:42:56;;;;;;;;;;;;;;;;;;4995304;28;19928;-62
2023/01/11 08:48:40;;;;;;;;;;;;;;;;;;4995168;28;20723;-61
2023/01/11 08:51:08;;;;;;;;;;;;;;;;;;4993591;28;19964;-63
2023/01/11 08:53:36;;;;;;;;;;;;;;;;;;4994276;28;19918;-64
2023/01/11 08:56:04;;;;;;;;;;;;;;;;;;4980853;28;20040;-63
2023/01/11 08:58:32;;;;;;;;;;;;;;;;;;4995894;28;20052;-63
2023/01/11 09:01:02;;;;;;;;;;;;;;;;;;4991018;28;19921;-62
2023/01/11 09:03:28;;;;;;;;;;;;;;;;;;4991452;28;20035;-62
2023/01/11 09:05:55;;;;;;;;;;;;;;;;;;4966661;28;20250;-63
2023/01/11 09:08:20;;;;;;;;;;;;;;;;;;4995866;28;19979;-63
2023/01/11 09:10:46;;;;;;;;;;;;;;;;;;4984970;28;19921;-62
2023/01/11 09:16:30;;;;;;;;;;;;;;;;;;4996386;28;20390;-63
2023/01/11 09:19:00;;;;;;;;;;;;;;;;;;4977579;28;20413;-63
2023/01/11 09:21:26;;;;;;;;;;;;;;;;;;4989407;28;19928;-63
2023/01/11 09:23:51;;;;;;;;;;;;;;;;;;4988081;28;20387;-63
2023/01/11 09:26:19;;;;;;;;;;;;;;;;;;4991911;28;20641;-63
2023/01/11 09:28:45;;;;;;;;;;;;;;;;;;4993857;28;19925;-63
2023/01/11 09:31:13;;;;;;;;;;;;;;;;;;4981258;28;19917;-63
2023/01/11 09:33:38;;;;;;;;;;;;;;;;;;4973349;28;20494;-63
2023/01/11 09:36:04;;;;;;;;;;;;;;;;;;4980699;28;19922;-63
2023/01/11 09:38:32;;;;;;;;;;;;;;;;;;4983848;28;20540;-63
2023/01/11 09:40:59;;;;;;;;;;;;;;;;;;5001818;28;19922;-63
2023/01/11 09:43:26;;;;;;;;;;;;;;;;;;4986600;28;19921;-62
2023/01/11 09:45:54;;;;;;;;;;;;;;;;;;4999227;28;19921;-63
2023/01/11 09:48:27;;;;;;;;;;;;;;;;;;4986681;28;19998;-64
2023/01/11 09:53:45;;;;;;;;;;;;;;;;;;5000993;28;19921;-63
2023/01/11 09:56:11;;;;;;;;;;;;;;;;;;4999677;28;20061;-63
2023/01/11 09:58:37;;;;;;;;;;;;;;;;;;4995765;28;20390;-63
2023/01/11 10:04:24;;;;;;;;;;;;;;;;;;5000424;28;19924;-62
2023/01/11 10:10:08;;;;;;;;;;;;;;;;;;4998905;28;19928;-62
2023/01/11 10:12:34;;;;;;;;;;;;;;;;;;4999460;28;19921;-62
2023/01/11 10:15:04;;;;;;;;;;;;;;;;;;4999781;28;20713;-64
2023/01/11 10:17:29;;;;;;;;;;;;;;;;;;4982729;28;20689;-62
2023/01/11 10:20:00;;;;;;;;;;;;;;;;;;4997931;28;19928;-62
2023/01/11 10:22:31;;;;;;;;;;;;;;;;;;4981902;28;19928;-62
2023/01/11 10:28:16;;;;;;;;;;;;;;;;;;4988505;28;21591;-62
2023/01/11 10:36:12;;;;;;;;;;;;;;;;;;4993923;28;20797;-62
2023/01/11 10:41:14;;;;;;;;;;;;;;;;;;4998859;28;20063;-62
2023/01/11 10:43:39;;;;;;;;;;;;;;;;;;4976489;28;19917;-62
2023/01/11 10:46:08;;;;;;;;;;;;;;;;;;4983295;28;19928;-62
2023/01/11 10:51:51;;;;;;;;;;;;;;;;;;4998698;28;19928;-63
2023/01/11 10:54:17;;;;;;;;;;;;;;;;;;4983905;28;20076;-63
2023/01/11 11:00:15;;;;;;;;;;;;;;;;;;4998827;28;20332;-64
2023/01/11 11:05:57;;;;;;;;;;;;;;;;;;4999957;28;19924;-62
2023/01/11 11:08:25;;;;;;;;;;;;;;;;;;4992255;28;19925;-64
2023/01/11 11:10:50;;;;;;;;;;;;;;;;;;4984916;28;21946;-63
2023/01/11 11:13:19;;;;;;;;;;;;;;;;;;4986337;28;19996;-63
2023/01/11 11:15:44;;;;;;;;;;;;;;;;;;4979819;28;19929;-63
2023/01/11 11:18:09;;;;;;;;;;;;;;;;;;4999122;28;19949;-64
2023/01/11 11:20:35;;;;;;;;;;;;;;;;;;4979851;28;19925;-63
2023/01/11 11:23:01;;;;;;;;;;;;;;;;;;4995018;28;19975;-62
2023/01/11 11:25:31;;;;;;;;;;;;;;;;;;4981878;28;20063;-63
2023/01/11 11:34:05;;;;;;;;;;;;;;;;;;5000136;28;20041;-64
2023/01/11 11:36:36;;;;;;;;;;;;;;;;;;4997644;28;19921;-63
2023/01/11 11:39:01;;;;;;;;;;;;;;;;;;4998190;28;20273;-64
2023/01/11 11:41:26;;;;;;;;;;;;;;;;;;4983966;28;19928;-64
2023/01/11 11:43:52;;;;;;;;;;;;;;;;;;4972329;28;19928;-64
2023/01/11 11:46:20;;;;;;;;;;;;;;;;;;4997141;28;20482;-63
2023/01/11 11:48:45;;;;;;;;;;;;;;;;;;4983551;28;19975;-63
2023/01/11 11:51:10;;;;;;;;;;;;;;;;;;4995145;28;19921;-64
2023/01/11 11:53:52;;;;;;;;;;;;;;;;;;4999877;28;19979;-63
2023/01/11 11:56:17;;;;;;;;;;;;;;;;;;4997998;28;20012;-63
2023/01/11 11:58:42;;;;;;;;;;;;;;;;;;4984157;28;19982;-63
2023/01/11 12:01:08;;;;;;;;;;;;;;;;;;4982247;28;20424;-64
2023/01/11 12:03:33;;;;;;;;;;;;;;;;;;4998213;28;19927;-63
2023/01/11 12:06:01;;;;;;;;;;;;;;;;;;4981118;28;19932;-66
2023/01/11 12:08:27;;;;;;;;;;;;;;;;;;4981571;28;19949;-64
2023/01/11 12:11:02;;;;;;;;;;;;;;;;;;4997901;28;20060;-64
2023/01/11 12:13:27;;;;;;;;;;;;;;;;;;4977069;28;19995;-65
2023/01/11 12:15:53;;;;;;;;;;;;;;;;;;4991959;28;20023;-64
2023/01/11 12:18:19;;;;;;;;;;;;;;;;;;4996810;28;19921;-64
2023/01/11 12:24:00;;;;;;;;;;;;;;;;;;4998180;28;20300;-65
2023/01/11 12:26:28;;;;;;;;;;;;;;;;;;4982067;28;20054;-65
2023/01/11 12:28:53;;;;;;;;;;;;;;;;;;4995623;28;20027;-65
2023/01/11 12:31:19;;;;;;;;;;;;;;;;;;4998591;28;19928;-65
2023/01/11 12:33:44;;;;;;;;;;;;;;;;;;4992228;28;21033;-63
2023/01/11 12:36:10;;;;;;;;;;;;;;;;;;4999754;28;19924;-63
2023/01/11 12:41:19;;;;;;;;;;;;;;;;;;4997840;28;19924;-64
2023/01/11 12:43:57;;;;;;;;;;;;;;;;;;4996726;28;20408;-64
2023/01/11 12:46:25;;;;;;;;;;;;;;;;;;4992079;28;19928;-63
2023/01/11 12:48:51;;;;;;;;;;;;;;;;;;4981781;28;19925;-64
2023/01/11 12:51:18;;;;;;;;;;;;;;;;;;4997993;28;19964;-65
2023/01/11 12:53:46;;;;;;;;;;;;;;;;;;4979752;28;20011;-65
2023/01/11 12:56:11;;;;;;;;;;;;;;;;;;4991034;28;19921;-65
2023/01/11 12:58:37;;;;;;;;;;;;;;;;;;4997877;28;20578;-64
2023/01/11 13:01:02;;;;;;;;;;;;;;;;;;4990452;28;19990;-64
2023/01/11 13:03:33;;;;;;;;;;;;;;;;;;4997706;28;20436;-64
2023/01/11 13:09:14;;;;;;;;;;;;;;;;;;4997892;28;20081;-64
2023/01/11 13:11:42;;;;;;;;;;;;;;;;;;4992781;28;19917;-65
2023/01/11 13:14:07;;;;;;;;;;;;;;;;;;4984963;28;19940;-67
2023/01/11 13:16:37;;;;;;;;;;;;;;;;;;4980162;28;20016;-63
2023/01/11 13:19:03;;;;;;;;;;;;;;;;;;4996009;28;20056;-64
2023/01/11 13:21:28;;;;;;;;;;;;;;;;;;4998410;28;20351;-63
2023/01/11 13:23:54;;;;;;;;;;;;;;;;;;4998126;28;20176;-65
2023/01/11 13:26:19;;;;;;;;;;;;;;;;;;4995405;28;20014;-65
2023/01/11 13:28:47;;;;;;;;;;;;;;;;;;4991536;28;19940;-65
2023/01/11 13:31:12;;;;;;;;;;;;;;;;;;4981251;28;19960;-64
2023/01/11 13:33:38;;;;;;;;;;;;;;;;;;4997714;28;19950;-65
2023/01/11 13:36:06;;;;;;;;;;;;;;;;;;4982560;28;21396;-65
2023/01/11 13:38:31;;;;;;;;;;;;;;;;;;4973934;28;19931;-65
2023/01/11 13:40:59;;;;;;;;;;;;;;;;;;4995817;28;19940;-66
2023/01/11 13:43:24;;;;;;;;;;;;;;;;;;4980280;28;20037;-64
2023/01/11 13:45:52;;;;;;;;;;;;;;;;;;4953361;28;19924;-66
2023/01/11 13:48:17;;;;;;;;;;;;;;;;;;4991170;28;20467;-66
2023/01/11 13:50:43;;;;;;;;;;;;;;;;;;4971496;28;19929;-65
2023/01/11 13:56:05;;;;;;;;;;;;;;;;;;4994723;28;20344;-65
2023/01/11 13:58:32;;;;;;;;;;;;;;;;;;4991036;28;21340;-67
2023/01/11 14:00:58;;;;;;;;;;;;;;;;;;4981726;28;21450;-66
2023/01/11 14:06:56;;;;;;;;;;;;;;;;;;4996556;28;20213;-66
2023/01/11 14:09:21;;;;;;;;;;;;;;;;;;4991217;28;20078;-64
2023/01/11 14:11:46;;;;;;;;;;;;;;;;;;4970020;28;19925;-64
2023/01/11 14:14:16;;;;;;;;;;;;;;;;;;4979473;28;20024;-66
2023/01/11 14:19:26;;;;;;;;;;;;;;;;;;4984808;28;20149;-65
2023/01/11 14:21:53;;;;;;;;;;;;;;;;;;5000821;28;19929;-66
2023/01/11 14:24:19;;;;;;;;;;;;;;;;;;4993976;28;19975;-65
2023/01/11 14:30:01;;;;;;;;;;;;;;;;;;4956174;28;19937;-65
2023/01/11 14:32:29;;;;;;;;;;;;;;;;;;4955525;28;19921;-64
2023/01/11 14:34:54;;;;;;;;;;;;;;;;;;4956650;28;19921;-65
2023/01/11 14:37:22;;;;;;;;;;;;;;;;;;4969821;28;19929;-66
2023/01/11 14:39:50;;;;;;;;;;;;;;;;;;4955650;28;19980;-66
2023/01/11 14:45:12;;;;;;;;;;;;;;;;;;4953930;28;19921;-65
2023/01/11 14:47:39;;;;;;;;;;;;;;;;;;4953391;28;19969;-65
2023/01/11 14:50:05;;;;;;;;;;;;;;;;;;4955153;28;20346;-68
2023/01/11 14:52:33;;;;;;;;;;;;;;;;;;4966367;28;19922;-66
2023/01/11 14:55:02;;;;;;;;;;;;;;;;;;4953488;28;19929;-67
2023/01/11 14:57:30;;;;;;;;;;;;;;;;;;4951604;28;19957;-67
2023/01/11 14:59:56;;;;;;;;;;;;;;;;;;4954209;28;20278;-65
2023/01/11 15:02:21;;;;;;;;;;;;;;;;;;4956917;28;19922;-65
2023/01/11 15:04:47;;;;;;;;;;;;;;;;;;4953110;28;20061;-65
2023/01/11 15:07:12;;;;;;;;;;;;;;;;;;4947145;28;19922;-65
2023/01/11 15:09:43;;;;;;;;;;;;;;;;;;4953307;28;19932;-65
2023/01/11 15:12:09;;;;;;;;;;;;;;;;;;4951742;28;19922;-67
2023/01/11 15:14:36;;;;;;;;;;;;;;;;;;4941294;28;19973;-66
2023/01/11 15:19:47;;;;;;;;;;;;;;;;;;4951551;28;20098;-65
2023/01/11 15:22:15;;;;;;;;;;;;;;;;;;4949850;28;19921;-65
2023/01/11 15:24:41;;;;;;;;;;;;;;;;;;4949060;28;20181;-66
2023/01/11 15:27:06;;;;;;;;;;;;;;;;;;4949384;28;19941;-64
2023/01/11 15:29:33;;;;;;;;;;;;;;;;;;4986784;28;20024;-65
2023/01/11 15:31:59;;;;;;;;;;;;;;;;;;4994405;28;19921;-66
2023/01/11 15:34:27;;;;;;;;;;;;;;;;;;4992460;28;19924;-65
2023/01/11 15:36:53;;;;;;;;;;;;;;;;;;4997535;28;19936;-65
2023/01/11 15:39:20;;;;;;;;;;;;;;;;;;4995970;28;19983;-65
2023/01/11 15:42:06;;;;;;;;;;;;;;;;;;4994104;28;20520;-65
2023/01/11 15:44:32;;;;;;;;;;;;;;;;;;4967387;28;19940;-66
2023/01/11 15:47:00;;;;;;;;;;;;;;;;;;4987640;28;29044;-65
2023/01/11 15:53:07;;;;;;;;;;;;;;;;;;4937978;28;20008;-65
2023/01/11 15:55:39;;;;;;;;;;;;;;;;;;4998467;28;20016;-64
2023/01/11 15:58:47;;;;;;;;;;;;;;;;;;4942566;28;19976;-65
2023/01/11 16:01:32;;;;;;;;;;;;;;;;;;4934920;28;20088;-64
2023/01/11 16:23:13;;;;;;;;;;;;;;;;;;4942584;28;20384;-64
2023/01/11 16:25:49;;;;;;;;;;;;;;;;;;;;;
2023/01/11 16:34:52;;;;;;;;;;;;;;;;;;4896552;28;20056;-65
2023/01/11 16:40:50;;;;;;;;;;;;;;;;;;4970198;28;19941;-64
2023/01/11 16:43:21;;;;;;;;;;;;;;;;;;4977310;28;19972;-65
2023/01/11 16:49:20;;;;;;;;;;;;;;;;;;4934898;28;20027;-64
2023/01/11 16:51:45;;;;;;;;;;;;;;;;;;4933947;28;19957;-66
2023/01/11 16:54:14;;;;;;;;;;;;;;;;;;4974459;28;19922;-66
2023/01/11 16:56:39;;;;;;;;;;;;;;;;;;4961151;28;21244;-67
2023/01/11 16:59:07;;;;;;;;;;;;;;;;;;4958904;28;19921;-65
2023/01/11 17:04:52;;;;;;;;;;;;;;;;;;4975562;28;20181;-67
2023/01/11 17:07:20;;;;;;;;;;;;;;;;;;4973600;28;20146;-63
2023/01/11 17:09:46;;;;;;;;;;;;;;;;;;4976928;28;19952;-66
2023/01/11 17:12:15;;;;;;;;;;;;;;;;;;4975901;28;19918;-66
2023/01/11 17:14:43;;;;;;;;;;;;;;;;;;4976548;28;20073;-69
2023/01/11 17:17:09;;;;;;;;;;;;;;;;;;4969327;28;20171;-65
2023/01/11 17:19:35;;;;;;;;;;;;;;;;;;4975609;28;20623;-65
2023/01/11 17:22:00;;;;;;;;;;;;;;;;;;4976853;28;20032;-64
2023/01/11 17:24:33;;;;;;;;;;;;;;;;;;4975961;28;19991;-65
2023/01/11 17:26:58;;;;;;;;;;;;;;;;;;4974945;28;19940;-65
2023/01/11 17:29:24;;;;;;;;;;;;;;;;;;4986770;28;20754;-67
2023/01/11 17:31:50;;;;;;;;;;;;;;;;;;4994629;28;21851;-67
2023/01/11 17:34:18;;;;;;;;;;;;;;;;;;4992651;28;19968;-67
2023/01/11 17:36:44;;;;;;;;;;;;;;;;;;4986728;28;19931;-66
2023/01/11 17:39:10;;;;;;;;;;;;;;;;;;4985657;28;19921;-65
2023/01/11 17:47:09;;;;;;;;;;;;;;;;;;4977387;28;20054;-66
2023/01/11 17:49:37;;;;;;;;;;;;;;;;;;4995029;28;20065;-67
2023/01/11 17:52:07;;;;;;;;;;;;;;;;;;4995675;28;19945;-65
2023/01/11 17:54:34;;;;;;;;;;;;;;;;;;4995107;28;19921;-66
2023/01/11 17:57:03;;;;;;;;;;;;;;;;;;4996650;28;19932;-65
2023/01/11 17:59:28;;;;;;;;;;;;;;;;;;5001074;28;19933;-65
2023/01/11 18:01:59;;;;;;;;;;;;;;;;;;4995073;28;19922;-66
2023/01/11 18:04:24;;;;;;;;;;;;;;;;;;5000820;28;20008;-65
2023/01/11 18:06:49;;;;;;;;;;;;;;;;;;4999659;28;20495;-65
2023/01/11 18:09:15;;;;;;;;;;;;;;;;;;4985161;28;19925;-65
2023/01/11 18:11:40;;;;;;;;;;;;;;;;;;4962091;28;20867;-66
2023/01/11 18:14:06;;;;;;;;;;;;;;;;;;4983002;28;19917;-65
2023/01/11 18:16:31;;;;;;;;;;;;;;;;;;4996840;28;20343;-65
2023/01/11 18:18:56;;;;;;;;;;;;;;;;;;4985776;28;20577;-67
2023/01/11 18:21:23;;;;;;;;;;;;;;;;;;4997692;28;19921;-65
2023/01/11 18:23:50;;;;;;;;;;;;;;;;;;4996315;28;20268;-67
2023/01/11 18:26:15;;;;;;;;;;;;;;;;;;4967395;28;19921;-66
2023/01/11 18:28:42;;;;;;;;;;;;;;;;;;4980546;28;19964;-65
2023/01/11 18:31:10;;;;;;;;;;;;;;;;;;4999185;28;19928;-66
2023/01/11 18:33:36;;;;;;;;;;;;;;;;;;4975067;28;20974;-65
2023/01/11 18:36:04;;;;;;;;;;;;;;;;;;4976981;28;20043;-65
2023/01/11 18:38:29;;;;;;;;;;;;;;;;;;4975739;28;20071;-66
2023/01/11 18:40:57;;;;;;;;;;;;;;;;;;4997643;28;19943;-66
2023/01/11 18:43:22;;;;;;;;;;;;;;;;;;4977661;28;19925;-64
2023/01/11 18:45:48;;;;;;;;;;;;;;;;;;4999135;28;20024;-65
2023/01/11 18:48:18;;;;;;;;;;;;;;;;;;4977919;28;20417;-66
2023/01/11 18:50:44;;;;;;;;;;;;;;;;;;4981675;28;20695;-65
2023/01/11 18:53:09;;;;;;;;;;;;;;;;;;4998833;28;20176;-66
2023/01/11 18:55:35;;;;;;;;;;;;;;;;;;4981488;28;20438;-65
2023/01/11 18:58:00;;;;;;;;;;;;;;;;;;4980584;28;19924;-66
2023/01/11 19:00:26;;;;;;;;;;;;;;;;;;4984598;28;19921;-66
2023/01/11 19:02:51;;;;;;;;;;;;;;;;;;4997962;28;19939;-68
2023/01/11 19:05:17;;;;;;;;;;;;;;;;;;4996444;28;20018;-65
2023/01/11 19:07:43;;;;;;;;;;;;;;;;;;4999550;28;20401;-65
2023/01/11 19:10:09;;;;;;;;;;;;;;;;;;4997049;28;19925;-65
2023/01/11 19:12:35;;;;;;;;;;;;;;;;;;4965213;28;20346;-67